ACT        NSW        VIC        QLD        SA        WA        TAS        NT        INFO        CALC            by VK5ZD

Past Date/Time: (dd/mm/yyyy hh:mm or blank for current data)    

  Atmospheric Gas Attenuation - ITU Rec 676-11   --------------- dB/100km ---------------
WA Stations Date Time Temp RH % AH g/m3 Dew Point Wind Direction Speed kph Gust kph Barometer mB Rainfall Since 9am 24GHz 47GHz 76GHz 122GHz 134GHz 241GHz
Albany Airport 08/05 08:20 12.4 82 8.96 9.4 15 19 1034.5 0 20.4 27.7 43.0 112.6 106.9 367.9
Badgingarra 08/05 08:20 14 62 7.48 6.8 30 32 1013.1 0 17.2 24.1 35.3 92.5 83.7 287.0
Barimunya 08/05 08:19 16.5 43 6.04 3.9 30 35 1013.1 0 14.0 21.3 29.0 75.7 64.0 218.1
Barrow Island 08/05 08:20 24.8 40 9.1 10.3 59 67 1017.5 0 20.1 23.8 36.6 96.1 91.7 316.3
Bedout Island 08/05 08:20 25 51 11.74 14.4 61 69 1017.5 0 25.6 27.7 46.3 121.9 123.4 427.3
Bickley 08/05 08:20 11.8 78 8.21 8.1 15 20 1013.1 0 18.9 25.8 39.2 102.9 95.7 328.8
Boolgeeda 08/05 08:19 19.7 26 4.41 -0.2 33 39 1020.1 0 10.5 18.7 22.9 59.2 44.3 149.2
Bridgetown 08/05 08:20 11.9 83 8.79 9.2 2 2 1032.7 1 20.1 27.5 42.5 111.2 105.1 361.4
Broome 08/05 08:20 23.6 33 7.02 6.4 22 30 1017.2 0 15.8 21.2 30.0 78.4 69.4 237.9
Bunbury 08/05 08:20 14.1 86 10.44 11.9 11 13 1031.6 0 23.5 29.6 48.2 126.5 124.8 430.8
Busselton Airport 08/05 08:20 13.7 76 9 9.6 22 24 1031.4 0 20.4 27.3 42.3 110.9 105.4 362.8
Cape Leeuwin 08/05 08:20 13.4 78 9.07 9.6 35 41 1030.8 0 20.6 27.5 42.7 112.0 106.7 367.4
Cape Naturaliste 08/05 08:20 16.1 75 10.28 11.7 33 41 1030.3 0 23.0 28.6 46.2 121.4 119.3 411.7
Carnarvon 08/05 08:20 22.7 27 5.45 2.8 28 35 1019.9 0 12.6 19.4 25.3 65.7 53.4 181.5
Christmas Creek 08/05 08:20 17.5 37 5.52 2.9 19 22 1024.4 0 12.9 20.7 27.3 71.0 57.9 196.8
Christmas Island 08/05 08:20 26.6 87 21.9 24.3 20 24 1010.5 0 47.0 44.7 89.3 236.4 264.9 920.5
Cocos Island 08/05 08:20 27.9 91 24.61 26.3 15 20 1009.9 25.4 52.6 49.5 101.4 268.5 304.6 1058.3
Collie East 08/05 08:20 11.2 88 8.92 9.3 7 7 1013.1 0 20.4 27.2 42.5 111.5 106.2 365.3
Coondewanna 08/05 08:20 16.4 40 5.58 2.8 32 37 1013.1 0 13.1 20.7 27.5 71.6 58.8 199.9
Cunderdin Airport 08/05 08:20 13.4 77 8.95 9.5 17 24 1032 0 20.3 27.3 42.3 110.8 105.2 362.0
Curtin 08/05 08:20 22.8 36 7.31 7 17 24 1016.3 0 16.5 21.7 31.2 81.7 73.2 251.4
Dalwallinu 08/05 08:20 13.3 63 7.28 6.4 24 30 1029.3 0 16.8 24.5 35.5 92.8 83.0 284.4
Dwellingup 08/05 08:20 12.2 86 9.28 9.9 20 32 1031.4 0 21.1 28.2 44.3 116.2 111.4 383.5
Eliwana Airport 08/05 08:20 21 24 4.4 -0.4 39 46 1013.1 0 10.5 18.2 22.3 57.7 43.2 145.7
Esperance 08/05 08:20 11 85 8.51 8.6 7 9 1037.1 0 19.5 27.5 42.0 109.8 102.8 353.2
Esperance Airport 08/05 08:20 12.3 77 8.36 8.4 11 13 1036.9 0 19.1 26.8 40.6 106.3 99.0 340.2
Eucla 08/05 08:20 16.5 55 7.72 7.4 13 15 1035.1 0.2 17.6 24.6 36.0 94.1 85.6 293.7
Eyre 08/05 06:00 13.1 87 9.93 11 2 1035 0 22.4 29.2 46.7 122.6 119.5 412.1
Fitzroy Crossing 08/05 08:20 22.6 33 6.63 5.5 1017.9 0 15.1 20.9 29.1 75.9 66.0 225.8
Forrest 08/05 08:20 15.3 60 7.84 7.6 17 19 1035 0 17.9 25.1 37.0 96.7 88.4 303.5
Fortescue Dave Forrest 08/05 08:20 16.7 40 5.68 3.3 19 24 1023.8 0 13.3 21.1 28.1 73.1 60.3 205.0
Garden Island 08/05 08:20 15.8 68 9.15 9.9 20 26 1030.6 0 20.6 26.8 41.8 109.5 104.5 360.0
Geraldton Airport 08/05 08:20 18.3 46 7.19 6.5 37 41 1025 0 16.4 22.9 32.9 85.9 76.6 262.5
Gerangamete (Cfa) 08/05 10:10 13.2 87 9.99 11.1 24 28 1013.1 0 22.6 28.4 45.9 120.6 118.1 407.5
Giles* 08/05 09:50 14.7 46 5.79 3.2 33 41 1027.1 0 13.6 21.8 29.3 76.2 63.3 215.3
Gingin Airport 08/05 08:20 15.9 56 7.58 7.1 19 22 1030 0 17.3 24.3 35.6 92.9 84.1 288.6
Golden Grove 08/05 08:20 14.7 55 6.92 5.8 26 35 1013.1 0 16.0 23.0 32.9 86.0 76.0 260.2
Gooseberry Hill 08/05 08:20 14.7 67 8.44 8.6 20 26 1013.1 0 19.2 25.4 38.7 101.6 95.2 327.3
Gudai-Darri Mine 08/05 08:20 17.9 40 6.11 4.1 32 41 1013.1 0 14.1 21.1 28.8 75.1 63.7 217.2
Halls Creek 08/05 09:50 19.1 39 6.39 4.8 37 44 1018.4 0 14.7 21.4 29.5 77.0 66.2 226.1
Hopetoun North 08/05 08:20 10.7 95 9.33 9.9 7 9 1035.6 0 21.3 29.0 45.6 119.5 114.7 394.8
Iron Bridge Mine 08/05 08:20 21.9 24 4.63 0.5 26 30 1013.1 0 10.9 18.3 22.8 59.0 45.1 152.3
Jacup 08/05 08:20 12.4 77 8.41 8.5 20 24 1034.9 0 19.2 26.8 40.7 106.5 99.4 341.6
Jandakot 08/05 08:20 14.8 68 8.61 9 11 13 1030.7 0 19.5 26.3 40.1 105.1 98.7 339.4
Kalgoorlie-Boulder 08/05 08:20 13.1 69 7.87 7.5 17 17 1033.6 0 18.0 25.7 38.1 99.6 91.2 313.1
Kalumburu 08/05 09:50 26.2 37 9.11 10.4 15 24 1014.9 0 20.1 23.4 36.0 94.4 90.0 310.6
Karijini North 08/05 08:20 19.2 33 5.44 2.6 39 46 1021.8 0 12.7 20.2 26.4 68.6 55.7 189.3
Karratha 08/05 08:20 24.2 23 5.06 1.8 35 41 1018.5 0 11.7 18.6 23.6 61.2 48.4 164.1
Katanning Rs 08/05 08:20 10.5 88 8.54 8.6 9 11 1033.6 0.2 19.6 27.6 42.2 110.5 103.6 356.0
Koolan Island / Koolan Central 08/05 08:19 24.6 41 9.23 10.5 17 20 1013.1 0 20.4 23.9 37.0 97.2 93.1 321.2
Kununurra Airport 08/05 09:50 24.5 38 8.5 9.3 24 26 1016.6 0 18.9 23.0 34.6 90.8 85.0 293.0
Lake Grace 08/05 08:20 12.3 82 8.9 9.3 22 28 1033.7 0 20.3 27.6 42.7 112.0 106.2 365.2
Lancelin (Defence) 08/05 08:20 16.4 58 8.09 8.1 20 26 1028 0 18.4 24.9 37.2 97.3 89.8 308.7
Laverton 08/05 08:20 12.6 68 7.52 6.9 37 43 1031.5 0 17.3 25.2 36.9 96.3 87.1 298.4
Learmonth 08/05 08:20 25.2 33 7.68 7.8 32 37 1018.7 0 17.1 21.8 31.7 82.8 75.3 258.9
Legendre Island 08/05 08:20 24.8 42 9.56 11.3 70 80 1017.2 0 21.1 24.4 38.3 100.5 97.0 335.1
Leinster 08/05 08:20 13.5 60 7.02 5.9 22 28 1028.9 0 16.2 24.1 34.4 89.8 79.5 272.0
Leonora Airport 08/05 08:20 13.5 60 7.02 5.9 26 30 1031.4 0 16.2 24.1 34.5 90.1 79.7 272.6
Lombadina 08/05 08:20 25.4 39 9.18 10.4 30 35 1013.1 0 20.3 23.6 36.5 95.8 91.6 316.1
Mandora 08/05 08:20 23.8 29 6.24 4.7 13 17 1019.1 0 14.2 20.2 27.4 71.5 60.9 208.1
Mandurah 08/05 08:20 15.4 65 8.54 8.8 9 15 1030.6 0 19.4 26.0 39.5 103.5 97.0 333.6
Manjimup 08/05 08:20 9.3 96 8.63 8.7 9 11 1032.6 0.2 19.9 28.1 43.2 113.1 106.4 365.7
Marble Bar 08/05 08:20 22.1 26 5.07 1.7 28 32 1021.3 0 11.8 19.1 24.3 63.1 49.9 169.1
Mardie 08/05 08:20 24.8 23 5.24 2.2 32 35 1018.2 0 12.1 18.6 24.0 62.3 49.8 169.3
Meekatharra 08/05 08:20 14.6 54 6.76 5.4 28 35 1026.6 0 15.6 23.3 32.9 85.8 75.0 256.5
Millendon (Swan Valley) 08/05 08:20 16.6 57 8.05 8 7 11 1030.2 0 18.3 24.9 37.0 96.9 89.3 306.7
Morawa Airport 08/05 08:20 15.8 51 6.86 5.9 30 35 1027.9 0 15.8 23.2 32.8 85.6 75.2 257.3
Mount Keith 08/05 08:20 13.4 58 6.74 5.3 28 35 1013.1 0 15.6 23.1 32.7 85.6 75.0 256.6
Mount Magnet Airport 08/05 08:20 14.4 56 6.92 5.7 19 24 1027.9 0 16.0 23.6 33.6 87.7 77.3 264.4
Munglinup West 08/05 08:20 12.1 83 8.9 9.4 13 17 1035.8 0.2 20.3 27.8 43.0 112.5 106.6 366.7
Newdegate 08/05 08:20 12.5 86 9.46 10.2 15 17 1033.9 0 21.5 28.5 45.0 118.1 113.7 391.6
Newman Airport 08/05 08:20 16.3 44 6.1 4 22 28 1023.9 0 14.2 21.8 29.7 77.4 65.5 223.2
Norseman Airport 08/05 08:20 11.6 74 7.69 7.1 15 15 1035.2 0.4 17.7 25.9 38.2 99.8 90.7 311.0
North Island 08/05 08:20 21.3 51 9.51 10.8 41 50 1023.9 0 21.1 25.6 40.1 105.1 101.4 349.7
Onslow Airport 08/05 08:20 24.2 32 7.04 6.5 37 43 1018.9 0 15.8 21.1 29.9 78.1 69.2 237.3
Paraburdoo 08/05 08:20 19.9 28 4.81 0.9 37 43 1020.9 0 11.4 19.2 24.1 62.5 48.4 163.8
Pearce 08/05 08:20 15.8 56 7.54 7 13 15 1029.9 0 17.2 24.3 35.4 92.6 83.7 287.2
Perth 08/05 08:20 15.6 63 8.38 8.6 7 9 1030.5 0 19.0 25.7 38.8 101.6 94.7 325.5
Perth Airport 08/05 08:20 16.2 58 8 7.9 17 19 1030.5 0 18.2 24.9 37.0 96.9 89.1 306.1
Port Hedland 08/05 08:20 23.9 25 5.41 2.7 41 48 1019.4 0 12.5 19.1 24.8 64.4 52.2 177.4
Portable Btsa (Dfes) 08/05 08:10 20.7 32 5.76 3.6 20 22 1013.1 0 13.3 20.0 26.7 69.5 57.7 196.5
Portable Btsb (Dfes) 08/05 08:10 11.5 82 8.47 8.5 13 17 1013.1 0 19.4 26.4 40.4 106.1 99.6 342.4
Portable Btsd (Dfes) 08/05 08:10 12.9 69 7.78 7.3 20 22 1013.1 0 17.9 24.8 37.0 96.9 88.7 304.5
Portable Btsf (Dfes) 08/05 08:00 13.6 57 6.71 5.2 32 37 1013.1 0 15.6 23.0 32.6 85.1 74.5 254.7
Portable Btsh (Dfes) 08/05 08:10 15.3 59 7.7 7.3 6 7 1013.1 0 17.6 24.1 35.6 93.2 85.1 292.0
Portable Btsj (Dfes) 08/05 08:10 15.8 65 8.75 9.2 11 13 1013.1 0 19.8 25.6 39.4 103.4 97.8 336.7
Portable Btsk (Dfes) 08/05 08:10 22.7 31 6.26 4.9 6 7 1013.1 0 14.3 20.2 27.7 72.2 61.6 210.6
Portable Btsl (Dfes) 08/05 08:10 12.1 72 7.72 7.2 6 9 1013.1 0 17.8 25.0 37.1 97.2 88.9 304.9
Portable Btsm (Dfes) 08/05 08:10 15.5 45 5.95 3.6 7 13 1013.1 0 13.9 21.4 29.1 75.8 63.7 217.1
Portable Btsn (Dfes) 08/05 08:10 12.9 63 7.1 6 17 19 1013.1 0 16.4 23.8 34.3 89.8 80.0 274.0
Portable Btso (Dfes) 08/05 08:10 9.8 88 8.17 8 4 6 1013.1 0 18.9 26.4 40.0 105.1 97.7 335.4
Red Rocks Point 08/05 08:20 17 60 8.68 9.2 20 22 1035.7 0 19.6 25.9 39.5 103.4 97.2 334.6
Rocky Gully South 08/05 08:20 11.5 82 8.47 8.5 15 17 1013.1 0 19.4 26.4 40.4 106.1 99.6 342.4
Roebourne Airport 08/05 08:20 24 23 5 1.6 28 43 1019.4 0 11.6 18.5 23.5 61.0 47.9 162.5
Rottnest Island 08/05 08:20 16.6 57 8.05 8.1 28 39 1029.7 0 18.3 24.8 37.0 96.8 89.2 306.6
Salmon Gums Rs 08/05 08:20 11.2 90 9.12 9.7 13 15 1013.1 0 20.8 27.5 43.3 113.8 108.9 375.0
Shannon 08/05 08:20 11 87 8.71 8.9 17 20 1013.1 0 20.0 26.9 41.7 109.5 103.5 356.1
Shark Bay Airport 08/05 08:20 21.4 38 7.12 6.5 30 33 1021 0 16.1 21.9 31.3 81.7 72.7 249.1
Solomon Airport 08/05 08:20 19.7 27 4.58 0.5 39 43 1021.2 0 10.9 18.9 23.5 60.7 46.1 155.6
Southern Cross Airport 08/05 08:20 12.9 79 8.9 9.4 20 24 1032.7 0 20.3 27.4 42.4 111.0 105.2 362.1
Swanbourne 08/05 08:20 16.2 70 9.65 10.7 11 15 1013.1 0 21.7 26.9 42.8 112.4 109.1 376.2
Telfer 08/05 08:20 18.8 36 5.8 3.4 35 43 1022 0 13.5 20.7 27.7 72.2 60.0 204.2
Thevenard Island 08/05 08:00 25.2 35 8.15 8.7 43 56 1018.4 0 18.1 22.4 33.2 87.0 80.5 277.1
Troughton Island 08/05 09:50 26.8 46 11.71 14.5 46 57 1014.4 0 25.5 27.0 45.0 118.5 120.0 415.5
Truscott 08/05 09:50 25 39 8.98 10.1 22 30 1014.1 0 19.9 23.5 36.0 94.5 89.8 309.8
Walpole North 08/05 08:20 12.5 83 9.13 9.7 9 11 1033.2 0.2 20.8 27.9 43.6 114.2 109.0 375.3
Wandering 08/05 08:20 12.9 80 9.02 9.5 13 15 1013.1 0 20.5 26.8 42.0 110.2 105.2 362.2
Warburton 08/05 09:50 13.9 47 5.63 2.8 37 43 1028.8 0 13.3 21.9 29.1 75.6 62.1 211.0
West Angelas 08/05 08:20 16.2 43 5.93 3.7 28 33 1024.4 0 13.8 21.6 29.2 75.9 63.6 216.6
West Musgrave Airport 08/05 08:20 14.2 45 5.5 2.5 33 39 1013.1 0 13.0 21.1 27.9 72.8 59.5 202.1
Wiluna Airport 08/05 08:20 14.4 58 7.17 6.3 24 32 1027.7 0 16.5 24.0 34.5 90.2 80.4 275.3
Witchcliffe West 08/05 08:20 12.9 91 10.26 11.5 19 22 1030.9 0 23.2 29.7 48.1 126.3 124.2 428.3
Wyndham Airport 08/05 09:50 26.1 33 8.08 8.6 30 35 1016.1 0 17.9 22.0 32.5 85.2 78.7 270.8
Yampi Sound (Defence) 08/05 08:20 23.8 38 8.17 8.6 9 11 1019.9 0 18.2 22.8 33.9 88.8 82.2 283.0

Last Refresh: 08-May-2026 09:57:24

Bureau of Meteorology